Time;durP1;ratioP1;P1;durP2;ratioP2;P2;SDS_P1;SDS_P2;PMS_P1;PMS_P2;Temp;Humidity;BMP_temperature;BMP_pressure;BME280_temperature;BME280_humidity;BME280_pressure;Samples;Min_cycle;Max_cycle;Signal;HPM_P1;HPM_P2
2021/08/09 00:01:21;;;;;;;7.05;1.60;;;;;;;14.99;98.60;100586.88;5231244;28;20310;-77
2021/08/09 00:03:51;;;;;;;5.53;1.70;;;;;;;14.99;99.05;100596.59;5225783;28;20040;-77
2021/08/09 00:06:23;;;;;;;4.53;1.40;;;;;;;15.20;97.26;100596.25;5226807;28;20028;-77
2021/08/09 00:08:53;;;;;;;3.53;1.40;;;;;;;15.16;97.26;100594.72;5234724;28;20021;-79
2021/08/09 00:11:24;;;;;;;5.90;1.50;;;;;;;15.16;96.84;100584.19;5237076;28;20036;-79
2021/08/09 00:13:54;;;;;;;4.23;1.53;;;;;;;15.21;96.90;100576.06;5229538;28;20021;-78
2021/08/09 00:16:24;;;;;;;2.78;1.40;;;;;;;15.20;96.95;100579.63;5227983;28;20446;-78
2021/08/09 00:18:55;;;;;;;3.10;1.38;;;;;;;15.10;97.91;100592.44;5226026;28;20033;-79
2021/08/09 00:21:26;;;;;;;6.03;1.50;;;;;;;14.98;98.84;100579.09;5227115;28;20040;-79
2021/08/09 00:23:56;;;;;;;5.45;1.45;;;;;;;15.13;97.26;100573.84;5226881;28;20029;-80
2021/08/09 00:26:29;;;;;;;4.35;1.58;;;;;;;15.18;96.52;100582.34;5222779;28;20036;-77
2021/08/09 00:29:02;;;;;;;4.72;1.48;;;;;;;15.20;95.97;100574.38;5223792;28;20050;-77
2021/08/09 00:31:33;;;;;;;4.82;1.40;;;;;;;15.28;95.68;100567.75;5212956;28;20061;-79
2021/08/09 00:34:03;;;;;;;4.28;1.45;;;;;;;15.06;96.66;100566.34;5223600;28;20045;-78
2021/08/09 00:36:33;;;;;;;3.97;1.20;;;;;;;14.90;97.20;100570.75;5224829;28;20430;-79
2021/08/09 00:39:04;;;;;;;4.55;1.35;;;;;;;14.75;96.45;100574.19;5224825;28;20102;-78
2021/08/09 00:41:34;;;;;;;3.30;1.40;;;;;;;14.68;96.34;100570.19;5226012;28;20035;-78
2021/08/09 00:44:05;;;;;;;4.00;1.30;;;;;;;14.53;96.42;100578.00;5228235;28;20036;-80
2021/08/09 00:46:35;;;;;;;4.07;1.50;;;;;;;14.57;95.74;100579.56;5226100;28;20391;-78
2021/08/09 00:49:05;;;;;;;2.97;1.17;;;;;;;14.71;94.76;100583.16;5228394;28;20463;-78
2021/08/09 00:51:36;;;;;;;3.30;1.38;;;;;;;14.70;95.01;100584.09;5226142;28;20028;-79
2021/08/09 00:54:06;;;;;;;5.07;1.83;;;;;;;14.72;95.22;100584.00;5228830;28;20021;-79
2021/08/09 00:56:36;;;;;;;4.68;1.50;;;;;;;14.52;95.73;100584.19;5221633;28;20029;-80
2021/08/09 00:59:07;;;;;;;3.88;1.65;;;;;;;14.30;96.85;100589.72;5229705;28;20044;-80
2021/08/09 01:01:37;;;;;;;4.53;1.50;;;;;;;14.34;97.41;100585.13;5232244;28;20092;-80
2021/08/09 01:04:08;;;;;;;5.03;1.40;;;;;;;14.34;95.88;100593.00;5224659;28;20076;-81
2021/08/09 01:06:39;;;;;;;5.25;1.60;;;;;;;14.27;97.43;100589.00;5230880;28;20311;-79
2021/08/09 01:09:23;;;;;;;3.95;1.17;;;;;;;14.19;97.66;100591.16;5232417;28;20055;-79
2021/08/09 01:11:59;;;;;;;3.20;1.25;;;;;;;14.30;97.64;100597.59;5236558;28;20060;-80
2021/08/09 01:14:52;;;;;;;2.90;1.20;;;;;;;14.21;98.20;100600.69;5232619;28;20024;-79
2021/08/09 01:17:27;;;;;;;3.65;1.35;;;;;;;14.30;98.20;100594.09;5230803;28;20021;-80
2021/08/09 01:20:16;;;;;;;3.25;1.20;;;;;;;14.29;98.10;100602.91;5241741;28;20016;-80
2021/08/09 01:23:01;;;;;;;3.17;1.38;;;;;;;14.33;97.76;100596.56;5237171;28;20474;-80
2021/08/09 01:25:59;;;;;;;3.28;1.45;;;;;;;14.04;100.00;100597.13;5232525;28;20028;-80
2021/08/09 01:28:32;;;;;;;5.45;1.52;;;;;;;14.14;99.97;100599.25;5237232;28;20391;-80
2021/08/09 01:31:02;;;;;;;4.95;1.38;;;;;;;14.14;100.00;100599.25;5240044;28;20028;-79
2021/08/09 01:33:35;;;;;;;4.93;1.63;;;;;;;14.21;99.98;100598.03;5232948;28;20208;-80
2021/08/09 01:36:07;;;;;;;4.85;1.50;;;;;;;14.11;100.00;100603.81;5229645;28;20024;-79
2021/08/09 01:38:40;;;;;;;4.80;1.70;;;;;;;14.12;100.00;100605.50;5231436;28;20035;-80
2021/08/09 01:41:10;;;;;;;3.88;1.40;;;;;;;14.10;99.58;100605.56;5236329;28;20028;-79
2021/08/09 01:43:42;;;;;;;3.83;1.40;;;;;;;14.18;99.97;100600.84;5239924;28;20032;-80
2021/08/09 01:46:14;;;;;;;3.55;1.20;;;;;;;14.15;99.23;100605.34;5236934;28;20031;-80
2021/08/09 01:48:47;;;;;;;3.10;1.30;;;;;;;14.07;98.67;100603.09;5234622;28;20032;-80
2021/08/09 01:51:17;;;;;;;2.30;1.20;;;;;;;13.99;99.89;100610.53;5238301;28;20024;-80
2021/08/09 01:53:47;;;;;;;4.55;1.40;;;;;;;14.07;99.85;100607.53;5235721;28;20493;-80
2021/08/09 01:56:19;;;;;;;3.83;1.50;;;;;;;14.21;98.52;100613.81;5228485;28;20446;-80
2021/08/09 01:58:51;;;;;;;2.72;1.40;;;;;;;14.16;99.48;100620.22;5236702;28;20024;-80
2021/08/09 02:01:22;;;;;;;2.30;1.50;;;;;;;14.23;99.13;100619.00;5237810;28;20025;-80
2021/08/09 02:03:52;;;;;;;4.57;1.50;;;;;;;14.19;99.95;100614.81;5233513;28;20545;-80
2021/08/09 02:06:23;;;;;;;4.68;1.30;;;;;;;14.25;98.68;100612.72;5232816;28;20063;-80
2021/08/09 02:08:53;;;;;;;3.72;1.50;;;;;;;14.21;98.94;100621.69;5238705;28;20363;-80
2021/08/09 02:12:01;;;;;;;4.07;1.40;;;;;;;14.06;99.22;100621.59;5235756;28;20242;-79
2021/08/09 02:14:35;;;;;;;9.50;1.67;;;;;;;14.09;99.60;100618.81;5228423;28;20036;-80
2021/08/09 02:17:17;;;;;;;5.05;1.42;;;;;;;13.79;100.00;100622.91;5240847;28;20021;-80
2021/08/09 02:20:03;;;;;;;4.78;1.40;;;;;;;13.84;100.00;100626.16;5234726;28;20060;-80
2021/08/09 02:22:44;;;;;;;5.28;1.42;;;;;;;13.77;100.00;100624.75;5236131;28;20108;-80
2021/08/09 02:25:16;;;;;;;5.15;1.60;;;;;;;13.78;100.00;100629.09;5229365;28;20040;-80
2021/08/09 02:27:54;;;;;;;2.05;1.30;;;;;;;13.61;100.00;100626.41;5230527;28;20043;-80
2021/08/09 02:30:26;;;;;;;3.42;1.40;;;;;;;13.55;100.00;100626.72;5237508;28;20283;-80
2021/08/09 02:32:59;;;;;;;3.65;1.70;;;;;;;13.56;100.00;100623.16;5233772;28;20563;-79
2021/08/09 02:35:31;;;;;;;3.72;1.40;;;;;;;13.53;100.00;100626.75;5226936;28;20437;-80
2021/08/09 02:38:02;;;;;;;4.20;1.48;;;;;;;13.52;100.00;100621.56;5238616;28;20061;-77
2021/08/09 02:40:34;;;;;;;5.82;1.58;;;;;;;13.47;100.00;100627.06;5235320;28;20072;-80
2021/08/09 02:43:05;;;;;;;3.60;1.73;;;;;;;13.37;100.00;100630.19;5238151;28;20085;-80
2021/08/09 02:45:36;;;;;;;4.93;1.80;;;;;;;13.39;100.00;100641.47;5235362;28;20107;-79
2021/08/09 02:48:07;;;;;;;4.78;1.65;;;;;;;13.42;100.00;100649.19;5231000;28;20028;-80
2021/08/09 02:50:38;;;;;;;3.80;1.45;;;;;;;13.54;100.00;100646.84;5238758;28;20050;-79
2021/08/09 02:53:09;;;;;;;5.18;1.70;;;;;;;13.55;100.00;100645.91;5234577;28;20068;-79
2021/08/09 02:55:40;;;;;;;3.45;1.55;;;;;;;13.69;100.00;100642.63;5231196;28;20060;-79
2021/08/09 02:58:11;;;;;;;5.03;1.83;;;;;;;13.61;100.00;100658.75;5231673;28;20397;-79
2021/08/09 03:00:43;;;;;;;3.63;1.63;;;;;;;13.72;100.00;100660.91;5238177;28;20047;-80
2021/08/09 03:03:18;;;;;;;7.45;1.80;;;;;;;13.80;100.00;100661.38;5234641;28;20059;-79
2021/08/09 03:05:52;;;;;;;5.68;1.70;;;;;;;13.92;100.00;100656.41;5230327;28;20025;-80
2021/08/09 03:08:23;;;;;;;3.65;1.58;;;;;;;13.98;100.00;100657.88;5236333;28;20169;-79
2021/08/09 03:10:54;;;;;;;5.22;1.60;;;;;;;14.00;100.00;100656.03;5237651;28;20021;-80
2021/08/09 03:13:25;;;;;;;5.15;1.73;;;;;;;14.02;100.00;100654.16;5235420;28;20092;-79
2021/08/09 03:15:57;;;;;;;5.90;1.52;;;;;;;14.15;100.00;100652.66;5237974;28;20029;-80
2021/08/09 03:18:33;;;;;;;4.07;1.60;;;;;;;14.23;100.00;100655.81;5235279;28;20047;-80
2021/08/09 03:21:06;;;;;;;5.30;2.00;;;;;;;14.16;100.00;100659.66;5238246;28;20247;-80
2021/08/09 03:23:36;;;;;;;4.07;1.50;;;;;;;14.18;100.00;100656.03;5239764;28;20035;-79
2021/08/09 03:26:07;;;;;;;5.90;1.70;;;;;;;14.25;100.00;100659.22;5225081;28;20491;-80
2021/08/09 03:28:37;;;;;;;4.88;1.75;;;;;;;14.28;100.00;100659.91;5236004;28;20032;-80
2021/08/09 03:31:08;;;;;;;4.53;1.63;;;;;;;14.36;100.00;100657.75;5235204;28;20021;-80
2021/08/09 03:33:38;;;;;;;5.72;1.70;;;;;;;14.33;100.00;100662.31;5233942;28;20033;-80
2021/08/09 03:36:08;;;;;;;3.53;1.40;;;;;;;14.39;100.00;100657.59;5231903;28;20028;-80
2021/08/09 03:38:39;;;;;;;5.93;1.70;;;;;;;14.45;100.00;100665.16;5235455;28;20382;-80
2021/08/09 03:41:09;;;;;;;6.20;1.60;;;;;;;14.43;100.00;100663.56;5237361;28;20289;-80
2021/08/09 03:43:39;;;;;;;5.85;1.58;;;;;;;14.30;100.00;100670.34;5234409;28;20036;-79
2021/08/09 03:46:10;;;;;;;4.78;1.67;;;;;;;14.18;100.00;100669.19;5238108;28;20066;-80
2021/08/09 03:48:41;;;;;;;5.07;1.55;;;;;;;14.20;100.00;100671.72;5235374;28;20021;-79
2021/08/09 03:51:11;;;;;;;4.20;1.52;;;;;;;14.17;100.00;100672.72;5236586;28;20017;-80
2021/08/09 03:53:41;;;;;;;4.72;1.70;;;;;;;14.23;100.00;100687.38;5236428;28;20037;-80
2021/08/09 03:56:12;;;;;;;3.85;1.40;;;;;;;14.13;100.00;100686.94;5229175;28;20036;-79
2021/08/09 03:58:42;;;;;;;5.20;1.77;;;;;;;14.13;100.00;100686.06;5235537;28;20111;-80
2021/08/09 04:01:13;;;;;;;3.42;1.30;;;;;;;14.33;100.00;100691.22;5233441;28;20488;-80
2021/08/09 04:03:43;;;;;;;4.40;1.65;;;;;;;14.28;100.00;100685.34;5234889;28;20033;-80
2021/08/09 04:06:13;;;;;;;3.25;1.70;;;;;;;14.16;100.00;100685.94;5230619;28;20033;-79
2021/08/09 04:08:44;;;;;;;3.45;1.55;;;;;;;14.11;100.00;100680.84;5236130;28;20102;-80
2021/08/09 04:11:16;;;;;;;6.30;1.63;;;;;;;14.30;100.00;100678.25;5237735;28;20104;-79
2021/08/09 04:13:46;;;;;;;6.50;2.00;;;;;;;14.31;100.00;100680.81;5236954;28;20040;-80
2021/08/09 04:16:16;;;;;;;6.40;1.80;;;;;;;14.11;100.00;100682.66;5235533;28;20042;-80
2021/08/09 04:18:47;;;;;;;6.18;1.85;;;;;;;14.12;100.00;100685.19;5238054;28;20028;-80
2021/08/09 04:21:17;;;;;;;5.93;1.55;;;;;;;14.31;100.00;100675.53;5236924;28;20060;-80
2021/08/09 04:23:48;;;;;;;4.38;1.70;;;;;;;14.32;100.00;100679.88;5237319;28;20092;-80
2021/08/09 04:26:19;;;;;;;3.05;1.42;;;;;;;14.34;100.00;100688.53;5229485;28;20383;-79
2021/08/09 04:28:49;;;;;;;4.10;1.70;;;;;;;14.47;100.00;100683.50;5236030;28;20047;-80
2021/08/09 04:31:20;;;;;;;6.05;1.77;;;;;;;14.55;100.00;100690.09;5233243;28;20031;-80
2021/08/09 04:33:51;;;;;;;5.20;1.50;;;;;;;14.81;100.00;100683.53;5234908;28;20036;-80
2021/08/09 04:36:21;;;;;;;3.65;1.50;;;;;;;14.82;99.66;100683.47;5232677;28;20025;-80
2021/08/09 04:38:51;;;;;;;5.55;1.50;;;;;;;14.74;100.00;100690.03;5236045;28;20033;-80
2021/08/09 04:41:22;;;;;;;4.78;1.48;;;;;;;15.11;97.86;100683.66;5234128;28;20487;-80
2021/08/09 04:43:52;;;;;;;5.05;1.55;;;;;;;14.95;99.17;100689.78;5235219;28;20609;-80
2021/08/09 04:46:22;;;;;;;3.58;1.60;;;;;;;14.88;100.00;100683.97;5236230;28;20110;-79
2021/08/09 04:48:53;;;;;;;6.18;1.70;;;;;;;14.89;100.00;100695.34;5233427;28;20288;-80
2021/08/09 04:51:23;;;;;;;4.22;1.52;;;;;;;14.91;100.00;100712.78;5235844;28;20013;-79
2021/08/09 04:53:53;;;;;;;4.40;1.60;;;;;;;14.93;100.00;100716.19;5233846;28;20036;-80
2021/08/09 04:56:24;;;;;;;5.13;1.58;;;;;;;15.04;100.00;100710.38;5228826;28;20032;-80
2021/08/09 04:58:54;;;;;;;2.23;1.20;;;;;;;15.25;100.00;100699.59;5237333;28;20035;-79
2021/08/09 05:01:24;;;;;;;5.93;1.60;;;;;;;15.34;99.72;100703.53;5239802;28;20293;-79
2021/08/09 05:03:55;;;;;;;3.87;1.40;;;;;;;15.63;97.87;100706.31;5233943;28;20040;-80
2021/08/09 05:06:25;;;;;;;5.45;1.52;;;;;;;15.65;97.77;100701.81;5232671;28;20291;-78
2021/08/09 05:08:56;;;;;;;3.15;1.25;;;;;;;15.62;98.50;100702.00;5228133;28;20032;-80
2021/08/09 05:11:27;;;;;;;4.47;1.30;;;;;;;15.72;96.68;100700.53;5233452;28;20024;-80
2021/08/09 05:13:57;;;;;;;6.33;1.70;;;;;;;15.62;98.76;100699.34;5231533;28;20028;-78
2021/08/09 05:16:28;;;;;;;4.95;1.65;;;;;;;15.67;99.50;100702.59;5235410;28;20286;-80
2021/08/09 05:19:02;;;;;;;4.05;1.48;;;;;;;15.88;96.52;100701.41;5235306;28;20335;-79
2021/08/09 05:21:34;;;;;;;4.65;1.50;;;;;;;15.94;98.21;100700.22;5230162;28;20035;-80
2021/08/09 05:24:05;;;;;;;3.47;1.30;;;;;;;15.64;99.39;100710.66;5226655;28;20547;-80
2021/08/09 05:26:35;;;;;;;3.83;1.60;;;;;;;15.38;100.00;100711.19;5230203;28;20040;-79
2021/08/09 05:29:05;;;;;;;4.20;1.52;;;;;;;15.54;100.00;100709.44;5232862;28;20506;-80
2021/08/09 05:31:37;;;;;;;4.43;1.58;;;;;;;15.77;100.00;100711.69;5247630;22;20032;-79
2021/08/09 05:34:08;;;;;;;4.47;1.35;;;;;;;16.52;97.59;100715.34;5228315;28;20032;-77
2021/08/09 05:36:38;;;;;;;3.92;1.60;;;;;;;16.58;96.75;100704.41;5230425;28;20044;-77
2021/08/09 05:39:09;;;;;;;3.42;1.30;;;;;;;16.77;95.83;100699.81;5231958;28;20060;-79
2021/08/09 05:41:39;;;;;;;4.43;1.40;;;;;;;16.89;94.55;100704.34;5227956;28;20021;-79
2021/08/09 05:44:09;;;;;;;4.32;1.42;;;;;;;16.95;94.73;100714.56;5211176;28;20379;-77
2021/08/09 05:46:40;;;;;;;3.63;1.55;;;;;;;17.01;92.77;100704.44;5215172;28;20036;-77
2021/08/09 05:49:10;;;;;;;4.18;1.30;;;;;;;17.17;91.48;100710.50;5211223;28;20375;-78
2021/08/09 05:51:40;;;;;;;5.10;1.48;;;;;;;17.33;92.42;100710.44;5214318;28;20582;-77
2021/08/09 05:54:11;;;;;;;3.03;1.23;;;;;;;17.87;89.36;100710.56;5213582;28;20032;-78
2021/08/09 05:56:41;;;;;;;3.05;1.20;;;;;;;18.28;87.03;100707.91;5207626;28;20072;-77
2021/08/09 05:59:11;;;;;;;4.63;1.20;;;;;;;19.32;81.32;100700.78;5211399;28;20048;-77
2021/08/09 06:01:42;;;;;;;4.80;1.30;;;;;;;19.69;82.35;100707.00;5212796;28;20033;-81
2021/08/09 06:04:12;;;;;;;3.37;1.50;;;;;;;20.12;79.19;100705.66;5215235;28;20083;-79
2021/08/09 06:06:43;;;;;;;4.30;1.10;;;;;;;20.84;75.34;100698.41;5216199;28;20283;-78
2021/08/09 06:09:13;;;;;;;6.40;1.30;;;;;;;20.94;75.30;100691.44;5211969;28;20287;-78
2021/08/09 06:11:43;;;;;;;3.83;1.30;;;;;;;21.14;74.08;100677.47;5213337;28;20376;-77
2021/08/09 06:14:14;;;;;;;5.22;1.50;;;;;;;20.22;77.37;100677.47;5211693;28;20272;-78
2021/08/09 06:16:44;;;;;;;5.60;1.15;;;;;;;19.92;80.10;100683.16;5213936;28;20028;-78
2021/08/09 06:19:14;;;;;;;4.53;1.27;;;;;;;19.68;81.15;100692.03;5211276;28;20049;-80
2021/08/09 06:21:44;;;;;;;3.83;1.40;;;;;;;19.83;81.08;100702.41;5212674;28;20820;-79
2021/08/09 06:24:15;;;;;;;4.97;1.50;;;;;;;19.39;79.81;100695.88;5213413;28;20646;-77
2021/08/09 06:26:45;;;;;;;3.93;1.20;;;;;;;18.92;81.24;100695.63;5207127;28;20815;-78
2021/08/09 06:29:16;;;;;;;5.10;1.20;;;;;;;18.69;82.07;100692.81;5211060;28;20515;-78
2021/08/09 06:31:46;;;;;;;2.92;1.23;;;;;;;18.60;83.23;100696.06;5212812;28;20055;-77
2021/08/09 06:34:16;;;;;;;4.95;1.45;;;;;;;18.52;84.06;100695.75;5216216;28;20024;-78
2021/08/09 06:36:46;;;;;;;5.90;1.50;;;;;;;18.50;86.17;100702.94;5206092;28;20426;-78
2021/08/09 06:39:20;;;;;;;5.50;1.52;;;;;;;18.70;86.73;100705.94;5211684;28;20279;-80
2021/08/09 06:41:51;;;;;;;4.72;1.52;;;;;;;18.95;83.89;100712.16;5209022;28;20096;-77
2021/08/09 06:44:21;;;;;;;4.05;1.50;;;;;;;19.57;81.62;100711.34;5211776;28;20108;-77
2021/08/09 06:46:51;;;;;;;5.20;1.43;;;;;;;19.99;80.77;100718.06;5211135;28;20057;-76
2021/08/09 06:49:23;;;;;;;4.38;1.35;;;;;;;20.24;79.00;100712.72;5210512;28;20349;-77
2021/08/09 06:51:53;;;;;;;6.88;1.52;;;;;;;20.45;79.11;100708.50;5208666;28;20083;-76
2021/08/09 06:54:25;;;;;;;4.50;1.30;;;;;;;21.29;75.57;100710.84;5213052;28;20025;-77
2021/08/09 06:56:55;;;;;;;4.15;1.30;;;;;;;21.89;71.85;100722.06;5211079;28;20033;-77
2021/08/09 06:59:25;;;;;;;6.80;1.50;;;;;;;21.50;72.35;100722.47;5208736;28;20067;-77
2021/08/09 07:01:55;;;;;;;4.18;1.27;;;;;;;22.41;72.46;100732.88;5208341;28;20501;-76
2021/08/09 07:04:26;;;;;;;3.93;1.20;;;;;;;22.70;69.55;100716.19;5212629;28;20025;-77
2021/08/09 07:06:56;;;;;;;2.93;1.20;;;;;;;23.06;68.03;100721.09;5212291;28;20626;-77
2021/08/09 07:09:26;;;;;;;4.20;1.20;;;;;;;22.60;69.87;100730.41;5210839;28;20275;-77
2021/08/09 07:11:56;;;;;;;3.97;1.30;;;;;;;22.01;71.48;100732.56;5212927;28;20275;-77
2021/08/09 07:14:27;;;;;;;4.05;1.30;;;;;;;21.48;71.98;100738.56;5211945;28;20288;-77
2021/08/09 07:16:58;;;;;;;3.67;1.15;;;;;;;20.89;73.58;100734.31;5211756;28;20028;-77
2021/08/09 07:19:28;;;;;;;5.90;1.48;;;;;;;20.36;74.79;100738.38;5210940;28;20052;-76
2021/08/09 07:21:59;;;;;;;4.47;1.25;;;;;;;20.41;76.06;100737.09;5212529;28;20033;-77
2021/08/09 07:24:29;;;;;;;5.88;1.30;;;;;;;20.59;76.82;100735.72;5208734;28;20021;-77
2021/08/09 07:26:59;;;;;;;4.72;1.40;;;;;;;20.05;76.28;100737.09;5205515;28;20025;-77
2021/08/09 07:29:31;;;;;;;8.63;1.40;;;;;;;20.44;76.86;100733.38;5212073;28;20164;-77
2021/08/09 07:32:02;;;;;;;2.60;1.17;;;;;;;20.32;75.80;100740.41;5206051;28;20272;-77
2021/08/09 07:34:32;;;;;;;3.15;1.00;;;;;;;20.49;77.16;100740.00;5211267;28;20382;-77
2021/08/09 07:37:03;;;;;;;4.27;1.40;;;;;;;20.61;75.24;100739.13;5212784;28;20430;-77
2021/08/09 07:39:36;;;;;;;4.70;1.30;;;;;;;20.35;75.59;100747.31;5212556;28;20275;-77
2021/08/09 07:42:06;;;;;;;5.10;1.38;;;;;;;20.50;75.61;100749.66;5208653;28;20545;-76
2021/08/09 07:44:36;;;;;;;4.03;1.30;;;;;;;20.69;74.43;100747.38;5212181;28;20034;-77
2021/08/09 07:47:07;;;;;;;6.15;1.52;;;;;;;20.84;74.90;100743.59;5209740;28;20412;-77
2021/08/09 07:49:37;;;;;;;4.35;1.13;;;;;;;21.65;72.34;100740.78;5211695;28;20540;-77
2021/08/09 07:52:07;;;;;;;4.90;1.40;;;;;;;22.39;69.81;100743.66;5211963;28;20261;-77
2021/08/09 07:54:38;;;;;;;4.80;1.30;;;;;;;21.38;72.46;100739.41;5208079;28;20499;-77
2021/08/09 07:57:13;;;;;;;4.55;1.17;;;;;;;21.11;71.26;100733.53;5205629;28;20462;-76
2021/08/09 07:59:44;;;;;;;5.68;1.40;;;;;;;23.62;65.02;100717.97;5212715;28;20036;-76
2021/08/09 08:02:14;;;;;;;4.03;1.37;;;;;;;25.48;60.13;100709.63;5212419;28;20041;-77
2021/08/09 08:04:45;;;;;;;3.95;0.98;;;;;;;26.46;59.07;100718.72;5218468;28;20275;-78
2021/08/09 08:07:15;;;;;;;7.10;1.20;;;;;;;26.50;59.24;100712.94;5213732;28;20028;-78
2021/08/09 08:09:45;;;;;;;3.30;1.07;;;;;;;28.24;56.04;100716.19;5213398;28;20033;-78
2021/08/09 08:12:16;;;;;;;3.53;1.13;;;;;;;29.53;53.96;100702.72;5212923;28;20650;-76
2021/08/09 08:14:47;;;;;;;4.22;1.10;;;;;;;30.99;52.26;100709.72;5215497;28;20033;-78
2021/08/09 08:17:17;;;;;;;4.73;1.30;;;;;;;31.43;50.30;100705.31;5215825;28;20048;-77
2021/08/09 08:19:47;;;;;;;6.80;1.20;;;;;;;28.55;53.93;100723.56;5212293;28;20036;-77
2021/08/09 08:22:18;;;;;;;4.27;1.30;;;;;;;27.32;54.70;100723.28;5211701;28;20343;-77
2021/08/09 08:24:48;;;;;;;4.45;1.15;;;;;;;26.25;58.29;100728.91;5216594;28;20033;-77
2021/08/09 08:27:18;;;;;;;6.15;1.20;;;;;;;26.70;58.46;100738.63;5208998;28;20020;-77
2021/08/09 08:29:49;;;;;;;3.97;1.40;;;;;;;25.77;59.35;100738.97;5210852;28;20040;-76
2021/08/09 08:32:19;;;;;;;5.50;1.40;;;;;;;27.47;58.00;100732.41;5213516;28;20272;-77
2021/08/09 08:34:51;;;;;;;4.28;1.30;;;;;;;26.65;56.76;100737.44;5221256;28;20337;-77
2021/08/09 08:37:22;;;;;;;4.88;1.73;;;;;;;26.49;57.97;100743.44;5219650;28;20100;-77
2021/08/09 08:39:52;;;;;;;4.70;1.50;;;;;;;27.52;55.41;100735.50;5216368;28;20125;-76
2021/08/09 08:42:23;;;;;;;4.30;1.58;;;;;;;26.65;56.60;100734.75;5215595;28;20434;-77
2021/08/09 08:44:54;;;;;;;6.25;1.48;;;;;;;27.79;55.69;100743.41;5217579;28;20048;-77
2021/08/09 08:47:26;;;;;;;5.00;1.17;;;;;;;27.24;57.90;100743.88;5216689;28;20029;-77
2021/08/09 08:49:57;;;;;;;5.47;1.33;;;;;;;27.61;56.82;100744.44;5218065;28;20064;-77
2021/08/09 08:52:27;;;;;;;4.28;1.35;;;;;;;28.72;54.59;100740.56;5215991;28;20026;-77
2021/08/09 08:54:57;;;;;;;3.80;1.05;;;;;;;28.36;55.00;100741.81;5213586;28;20048;-77
2021/08/09 08:57:28;;;;;;;3.70;1.20;;;;;;;27.40;55.42;100746.63;5220363;28;20036;-77
2021/08/09 08:59:58;;;;;;;4.77;1.20;;;;;;;28.09;54.57;100747.44;5215183;28;20280;-77
2021/08/09 09:02:31;;;;;;;5.15;1.45;;;;;;;26.83;57.53;100757.88;5218458;28;20315;-77
2021/08/09 09:05:12;;;;;;;3.63;1.20;;;;;;;28.63;53.43;100742.41;5220715;28;20033;-77
2021/08/09 09:07:45;;;;;;;3.85;1.10;;;;;;;28.37;53.67;100743.50;5238459;28;20509;-77
2021/08/09 09:10:29;;;;;;;4.70;1.33;;;;;;;27.53;55.41;100745.25;5215322;28;20029;-77
2021/08/09 09:13:14;;;;;;;4.75;1.10;;;;;;;24.84;60.99;100755.88;5212668;28;20025;-76
2021/08/09 09:16:03;;;;;;;5.20;1.33;;;;;;;25.61;61.39;100747.63;5213676;28;20375;-76
2021/08/09 09:18:48;;;;;;;7.70;1.55;;;;;;;24.68;62.21;100747.56;5211988;28;20478;-76
2021/08/09 09:21:33;;;;;;;4.40;1.37;;;;;;;24.79;62.22;100755.47;5213250;28;20166;-76
2021/08/09 09:24:18;;;;;;;3.95;1.33;;;;;;;24.22;62.23;100746.47;5214147;28;20029;-76
2021/08/09 09:27:05;;;;;;;3.35;1.20;;;;;;;24.74;62.13;100737.16;5207817;28;20044;-76
2021/08/09 09:29:38;;;;;;;4.88;1.50;;;;;;;23.82;63.25;100746.47;5213388;28;20092;-76
2021/08/09 09:32:16;;;;;;;4.22;1.48;;;;;;;24.30;63.67;100747.47;5213261;28;20064;-77
2021/08/09 09:34:54;;;;;;;3.85;1.30;;;;;;;23.69;66.79;100745.78;5214448;28;20540;-77
2021/08/09 09:37:27;;;;;;;3.50;1.30;;;;;;;23.95;65.55;100749.75;5213716;28;20025;-77
2021/08/09 09:40:11;;;;;;;3.30;1.27;;;;;;;24.12;65.22;100751.78;5212582;28;20527;-77
2021/08/09 09:42:42;;;;;;;5.00;1.75;;;;;;;23.97;64.81;100755.81;5213717;28;20164;-77
2021/08/09 09:45:24;;;;;;;7.15;2.50;;;;;;;23.33;66.15;100761.47;5211848;28;20112;-77
2021/08/09 09:48:05;;;;;;;7.15;2.10;;;;;;;22.97;66.34;100762.72;5212480;28;20029;-77
2021/08/09 09:50:39;;;;;;;9.27;2.10;;;;;;;23.10;68.10;100751.84;5213493;28;20035;-76
2021/08/09 09:53:28;;;;;;;7.35;2.00;;;;;;;23.13;68.69;100755.16;5213149;28;20030;-77
2021/08/09 09:55:59;;;;;;;7.45;1.92;;;;;;;23.02;68.69;100760.50;5211637;28;20082;-77
2021/08/09 09:58:30;;;;;;;7.40;1.77;;;;;;;23.39;66.43;100759.09;5210664;28;20064;-77
2021/08/09 10:01:02;;;;;;;7.82;1.80;;;;;;;23.58;65.19;100767.25;5211992;28;20098;-77
2021/08/09 10:03:34;;;;;;;7.35;1.75;;;;;;;23.86;66.20;100774.56;5211334;28;20040;-76
2021/08/09 10:06:05;;;;;;;5.60;1.60;;;;;;;23.23;67.62;100772.06;5214120;28;20033;-77
2021/08/09 10:08:44;;;;;;;8.30;2.00;;;;;;;23.58;68.31;100769.91;5215291;28;20036;-77
2021/08/09 10:11:14;;;;;;;6.47;1.80;;;;;;;24.04;66.98;100778.31;5211941;28;20018;-76
2021/08/09 10:13:45;;;;;;;5.35;1.70;;;;;;;23.48;67.36;100779.69;5214640;28;20025;-76
2021/08/09 10:16:15;;;;;;;6.30;1.95;;;;;;;23.38;66.94;100789.44;5211853;28;20032;-77
2021/08/09 10:18:50;;;;;;;9.17;2.13;;;;;;;23.18;68.73;100789.44;5213516;28;20027;-77
2021/08/09 10:21:23;;;;;;;9.75;1.98;;;;;;;23.09;70.18;100785.69;5212435;28;20650;-77
2021/08/09 10:23:53;;;;;;;5.35;1.70;;;;;;;23.07;68.05;100790.31;5211745;28;20109;-77
2021/08/09 10:26:32;;;;;;;4.15;1.65;;;;;;;22.32;69.49;100795.72;5209034;28;20461;-78
2021/08/09 10:29:04;;;;;;;6.07;1.50;;;;;;;22.22;70.16;100791.25;5212735;28;20033;-77
2021/08/09 10:31:45;;;;;;;4.55;1.40;;;;;;;22.17;68.98;100796.06;5216177;28;20598;-77
2021/08/09 10:34:40;;;;;;;6.80;1.60;;;;;;;21.62;71.15;100799.59;5220340;28;20031;-77
2021/08/09 10:37:15;;;;;;;7.22;1.50;;;;;;;21.65;72.36;100791.34;5219225;28;20541;-77
2021/08/09 10:39:55;;;;;;;4.25;1.50;;;;;;;21.85;71.04;100803.09;5215072;28;20095;-77
2021/08/09 10:42:33;;;;;;;4.03;1.40;;;;;;;21.65;71.47;100798.47;5214798;28;20122;-77
2021/08/09 10:45:07;;;;;;;6.70;1.60;;;;;;;22.27;71.03;100791.72;5211700;28;20036;-78
2021/08/09 10:47:46;;;;;;;3.30;1.40;;;;;;;22.28;70.81;100802.22;5215397;28;20565;-77
2021/08/09 10:50:22;;;;;;;5.28;1.40;;;;;;;22.23;70.63;100796.44;5215658;28;20473;-77
2021/08/09 10:52:54;;;;;;;5.20;1.48;;;;;;;22.47;70.68;100798.97;5215895;28;20426;-77
2021/08/09 10:55:31;;;;;;;6.40;1.50;;;;;;;22.35;71.70;100798.13;5207293;28;20406;-77
2021/08/09 10:58:05;;;;;;;3.95;1.40;;;;;;;22.75;69.28;100796.59;5208939;28;20025;-77
2021/08/09 11:00:38;;;;;;;3.28;1.30;;;;;;;22.43;69.93;100793.03;5211917;28;20434;-77
2021/08/09 11:03:11;;;;;;;4.97;1.52;;;;;;;22.40;71.73;100792.47;5239415;28;20025;-77
2021/08/09 11:05:41;;;;;;;5.75;1.42;;;;;;;22.88;72.18;100784.78;5213048;28;20117;-77
2021/08/09 11:08:18;;;;;;;9.95;1.23;;;;;;;22.82;70.80;100793.31;5214114;28;20024;-77
2021/08/09 11:10:51;;;;;;;4.53;1.17;;;;;;;23.01;71.05;100788.13;5211080;28;20085;-78
2021/08/09 11:13:29;;;;;;;6.57;1.20;;;;;;;22.79;71.71;100790.91;5214320;28;20394;-76
2021/08/09 11:16:03;;;;;;;4.85;1.35;;;;;;;22.80;69.55;100797.94;5213071;28;20044;-76
2021/08/09 11:18:35;;;;;;;5.38;1.60;;;;;;;22.73;69.94;100794.09;5207788;28;20083;-76
2021/08/09 11:21:10;;;;;;;4.65;1.30;;;;;;;22.84;68.98;100788.69;5211730;28;20029;-76
2021/08/09 11:23:48;;;;;;;4.85;1.25;;;;;;;22.74;70.28;100793.09;5200042;28;20056;-76
2021/08/09 11:26:21;;;;;;;4.03;1.20;;;;;;;22.96;71.06;100789.50;5217105;28;20509;-77
2021/08/09 11:28:59;;;;;;;4.95;1.20;;;;;;;23.22;69.66;100789.03;5212016;28;20083;-77
2021/08/09 11:31:47;;;;;;;5.50;1.80;;;;;;;23.82;67.28;100789.19;5226645;23;20098;-78
2021/08/09 11:34:18;;;;;;;6.10;1.40;;;;;;;23.99;65.62;100780.53;5190866;28;20135;-78
2021/08/09 11:37:01;;;;;;;4.40;1.23;;;;;;;23.95;65.37;100784.47;5188219;28;20503;-78
2021/08/09 11:39:41;;;;;;;3.83;1.40;;;;;;;23.82;65.51;100777.59;5189958;28;20029;-78
2021/08/09 11:42:11;;;;;;;5.82;1.30;;;;;;;23.32;65.26;100779.28;5184583;28;20113;-78
2021/08/09 11:44:41;;;;;;;8.48;1.77;;;;;;;23.75;66.76;100771.13;5173527;28;20176;-78
2021/08/09 11:47:20;;;;;;;6.07;1.27;;;;;;;23.86;64.77;100769.25;5167811;28;20535;-78
2021/08/09 11:49:54;;;;;;;6.60;1.30;;;;;;;23.78;62.69;100765.50;5170491;28;20045;-77